createdAt,value
2023-09-25T00:01:18.420Z,3.97
2023-09-25T00:03:45.638Z,4.38
2023-09-25T00:06:12.681Z,3.92
2023-09-25T00:08:39.669Z,5.45
2023-09-25T00:11:06.743Z,4.10
2023-09-25T00:13:33.776Z,4.28
2023-09-25T00:16:03.713Z,4.47
2023-09-25T00:18:30.941Z,3.95
2023-09-25T00:20:57.937Z,4.88
2023-09-25T00:23:24.933Z,3.88
2023-09-25T00:25:52.241Z,4.18
2023-09-25T00:28:19.184Z,4.40
2023-09-25T00:30:46.257Z,4.22
2023-09-25T00:33:13.924Z,4.78
2023-09-25T00:35:43.638Z,4.60
2023-09-25T00:38:11.802Z,4.03
2023-09-25T00:40:39.674Z,5.10
2023-09-25T00:43:07.240Z,4.03
2023-09-25T00:45:38.501Z,5.30
2023-09-25T00:48:06.646Z,4.22
2023-09-25T00:50:35.259Z,4.20
2023-09-25T00:53:10.362Z,4.82
2023-09-25T00:55:37.487Z,5.80
2023-09-25T00:58:07.389Z,4.18
2023-09-25T01:00:36.757Z,3.65
2023-09-25T01:03:04.528Z,4.18
2023-09-25T01:05:34.055Z,3.95
2023-09-25T01:08:00.995Z,3.83
2023-09-25T01:10:27.938Z,3.83
2023-09-25T01:12:54.912Z,2.83
2023-09-25T01:15:22.792Z,3.38
2023-09-25T01:17:49.926Z,3.47
2023-09-25T01:20:19.002Z,3.85
2023-09-25T01:22:48.220Z,2.90
2023-09-25T01:25:17.475Z,3.28
2023-09-25T01:27:46.236Z,3.42
2023-09-25T01:30:15.185Z,3.05
2023-09-25T01:32:45.699Z,3.05
2023-09-25T01:35:16.588Z,3.08
2023-09-25T01:37:43.667Z,3.47
2023-09-25T01:40:18.992Z,2.92
2023-09-25T01:42:48.850Z,3.55
2023-09-25T01:45:18.784Z,3.40
2023-09-25T01:47:54.356Z,3.08
2023-09-25T01:50:29.357Z,3.03
2023-09-25T01:52:58.467Z,2.50
2023-09-25T01:55:29.970Z,2.50
2023-09-25T01:57:57.169Z,2.83
2023-09-25T02:00:27.195Z,2.70
2023-09-25T02:02:54.318Z,3.10
2023-09-25T02:05:21.701Z,3.13
2023-09-25T02:07:49.869Z,3.47
2023-09-25T02:10:16.916Z,3.08
2023-09-25T02:12:44.882Z,2.45
2023-09-25T02:15:12.627Z,2.90
2023-09-25T02:17:39.765Z,2.65
2023-09-25T02:20:21.700Z,3.55
2023-09-25T02:22:50.084Z,2.75
2023-09-25T02:25:18.156Z,2.70
2023-09-25T02:27:47.077Z,1.92
2023-09-25T02:30:15.144Z,3.08
2023-09-25T02:32:45.133Z,2.60
2023-09-25T02:35:13.105Z,2.75
2023-09-25T02:37:42.631Z,3.08
2023-09-25T02:42:46.855Z,3.03
2023-09-25T02:45:14.988Z,2.72
2023-09-25T02:47:42.060Z,2.05
2023-09-25T02:50:10.176Z,2.55
2023-09-25T02:52:37.765Z,2.80
2023-09-25T02:55:05.499Z,2.53
2023-09-25T02:57:32.448Z,2.58
2023-09-25T02:59:59.637Z,2.65
2023-09-25T03:02:27.524Z,2.88
2023-09-25T03:04:55.557Z,4.28
2023-09-25T03:07:22.785Z,2.85
2023-09-25T03:09:50.305Z,3.88
2023-09-25T03:12:17.457Z,3.17
2023-09-25T03:14:44.684Z,3.08
2023-09-25T03:17:11.735Z,2.75
2023-09-25T03:19:39.825Z,2.67
2023-09-25T03:22:06.812Z,3.92
2023-09-25T03:24:36.530Z,3.60
2023-09-25T03:27:03.644Z,3.72
2023-09-25T03:29:30.662Z,3.35
2023-09-25T03:31:57.822Z,2.50
2023-09-25T03:34:27.993Z,3.30
2023-09-25T03:36:55.051Z,3.08
2023-09-25T03:39:21.989Z,3.05
2023-09-25T03:41:48.983Z,2.30
2023-09-25T03:44:15.961Z,4.13
2023-09-25T03:46:43.016Z,4.25
2023-09-25T03:49:09.968Z,3.38
2023-09-25T03:51:37.016Z,3.30
2023-09-25T03:54:04.471Z,2.90
2023-09-25T03:56:31.803Z,4.60
2023-09-25T03:58:58.773Z,3.97
2023-09-25T04:01:26.825Z,4.93
2023-09-25T04:03:54.019Z,4.13
2023-09-25T04:06:21.323Z,5.10
2023-09-25T04:08:48.815Z,4.50
2023-09-25T04:11:16.102Z,4.72
2023-09-25T04:13:43.133Z,4.72
2023-09-25T04:16:13.598Z,5.10
2023-09-25T04:18:40.997Z,5.03
2023-09-25T04:21:08.261Z,9.50
2023-09-25T04:23:35.344Z,4.60
2023-09-25T04:26:02.532Z,6.15
2023-09-25T04:28:29.804Z,5.35
2023-09-25T04:30:58.612Z,5.68
2023-09-25T04:33:26.373Z,6.72
2023-09-25T04:36:00.003Z,6.63
2023-09-25T04:38:27.533Z,6.03
2023-09-25T04:40:56.101Z,6.93
2023-09-25T04:43:23.674Z,5.93
2023-09-25T04:45:53.550Z,8.57
2023-09-25T04:48:20.715Z,6.37
2023-09-25T04:50:47.895Z,4.43
2023-09-25T04:53:15.082Z,5.50
2023-09-25T04:55:43.109Z,5.13
2023-09-25T04:58:10.625Z,6.32
2023-09-25T05:00:37.791Z,5.65
2023-09-25T05:03:06.237Z,6.65
2023-09-25T05:05:34.440Z,5.72
2023-09-25T05:08:01.651Z,5.43
2023-09-25T05:10:31.009Z,5.00
2023-09-25T05:12:58.263Z,6.88
2023-09-25T05:15:25.613Z,7.30
2023-09-25T05:17:55.928Z,6.85
2023-09-25T05:20:25.507Z,5.53
2023-09-25T05:22:54.478Z,5.75
2023-09-25T05:25:23.347Z,7.78
2023-09-25T05:27:53.127Z,4.72
2023-09-25T05:30:27.251Z,5.03
2023-09-25T05:32:54.914Z,5.45
2023-09-25T05:35:26.255Z,4.82
2023-09-25T05:37:53.245Z,6.70
2023-09-25T05:40:20.396Z,4.75
2023-09-25T05:42:49.590Z,4.88
2023-09-25T05:45:18.749Z,3.90
2023-09-25T05:47:46.531Z,6.20
2023-09-25T05:50:14.359Z,5.10
2023-09-25T05:52:42.067Z,4.68
2023-09-25T05:55:10.242Z,4.88
2023-09-25T05:57:38.079Z,4.57
2023-09-25T06:00:14.229Z,4.75
2023-09-25T06:02:43.271Z,5.45
2023-09-25T06:05:14.229Z,6.20
2023-09-25T06:07:42.119Z,6.43
2023-09-25T06:10:09.977Z,6.45
2023-09-25T06:12:37.336Z,6.57
2023-09-25T06:15:11.360Z,7.70
2023-09-25T06:17:39.829Z,5.60
2023-09-25T06:20:14.836Z,6.63
2023-09-25T06:22:43.056Z,6.43
2023-09-25T06:25:13.202Z,5.85
2023-09-25T06:27:41.725Z,6.60
2023-09-25T06:30:10.928Z,7.70
2023-09-25T06:32:40.347Z,6.25
2023-09-25T06:35:08.068Z,6.75
2023-09-25T06:37:37.911Z,9.55
2023-09-25T06:40:17.353Z,7.70
2023-09-25T06:42:47.559Z,7.53
2023-09-25T06:45:23.036Z,8.02
2023-09-25T06:47:50.822Z,7.13
2023-09-25T06:50:18.406Z,7.55
2023-09-25T06:52:45.471Z,7.15
2023-09-25T06:55:20.435Z,7.03
2023-09-25T06:57:48.362Z,6.30
2023-09-25T07:00:15.691Z,8.57
2023-09-25T07:02:43.959Z,8.65
2023-09-25T07:05:11.590Z,7.53
2023-09-25T07:07:39.587Z,8.05
2023-09-25T07:10:10.819Z,6.72
2023-09-25T07:12:38.556Z,7.50
2023-09-25T07:15:06.507Z,7.28
2023-09-25T07:17:33.504Z,7.22
2023-09-25T07:20:00.628Z,7.75
2023-09-25T07:22:29.452Z,6.35
2023-09-25T07:24:57.440Z,7.45
2023-09-25T07:27:24.562Z,7.20
2023-09-25T07:29:51.688Z,6.00
2023-09-25T07:32:19.205Z,6.28
2023-09-25T07:34:46.723Z,6.43
2023-09-25T07:37:14.097Z,6.72
2023-09-25T07:39:43.360Z,6.20
2023-09-25T07:42:11.313Z,7.78
2023-09-25T07:44:39.630Z,7.35
2023-09-25T07:47:13.949Z,6.25
2023-09-25T07:49:42.873Z,6.63
2023-09-25T07:52:17.446Z,7.05
2023-09-25T07:54:47.107Z,6.07
2023-09-25T07:57:17.950Z,6.25
2023-09-25T07:59:45.248Z,7.40
2023-09-25T08:02:35.067Z,6.32
2023-09-25T08:05:04.883Z,7.68
2023-09-25T08:07:32.354Z,6.22
2023-09-25T08:10:01.468Z,6.97
2023-09-25T08:12:28.597Z,5.95
2023-09-25T08:14:56.358Z,7.03
2023-09-25T08:17:23.503Z,6.22
2023-09-25T08:19:53.957Z,5.85
2023-09-25T08:22:22.770Z,5.78
2023-09-25T08:24:53.506Z,5.22
2023-09-25T08:27:22.105Z,5.93
2023-09-25T08:29:49.280Z,5.28
2023-09-25T08:32:16.297Z,5.43
2023-09-25T08:34:43.357Z,5.20
2023-09-25T08:37:10.378Z,5.05
2023-09-25T08:39:37.328Z,4.63
2023-09-25T08:42:05.346Z,3.72
2023-09-25T08:44:33.064Z,6.90
2023-09-25T08:47:00.506Z,5.20
2023-09-25T08:49:27.945Z,5.55
2023-09-25T08:51:55.664Z,5.13
2023-09-25T08:54:24.182Z,4.03
2023-09-25T08:56:51.517Z,3.90
2023-09-25T08:59:20.364Z,4.03
2023-09-25T09:01:48.035Z,3.70
2023-09-25T09:04:17.458Z,3.50
2023-09-25T09:06:44.650Z,3.20
2023-09-25T09:09:14.002Z,3.83
2023-09-25T09:11:50.506Z,4.10
2023-09-25T09:14:45.230Z,3.65
2023-09-25T09:17:14.224Z,2.80
2023-09-25T09:20:08.621Z,3.60
2023-09-25T09:22:36.388Z,3.65
2023-09-25T09:25:03.717Z,3.05
2023-09-25T09:27:30.962Z,3.08
2023-09-25T09:29:58.700Z,3.75
2023-09-25T09:32:28.117Z,4.38
2023-09-25T09:34:55.105Z,3.13
2023-09-25T09:37:23.197Z,2.80
2023-09-25T09:39:53.953Z,3.30
2023-09-25T09:42:22.623Z,3.55
2023-09-25T09:44:49.834Z,3.17
2023-09-25T09:47:22.007Z,2.92
2023-09-25T09:49:49.770Z,3.28
2023-09-25T09:52:20.991Z,3.72
2023-09-25T09:54:49.042Z,2.47
2023-09-25T09:57:16.770Z,2.88
2023-09-25T09:59:43.805Z,3.10
2023-09-25T10:02:11.454Z,2.60
2023-09-25T10:04:38.911Z,3.00
2023-09-25T10:07:11.996Z,2.88
2023-09-25T10:09:57.926Z,3.13
2023-09-25T10:12:50.341Z,3.47
2023-09-25T10:15:29.544Z,4.10
2023-09-25T10:17:58.448Z,3.45
2023-09-25T10:20:37.793Z,2.35
2023-09-25T10:23:27.067Z,2.47
2023-09-25T10:25:58.883Z,3.17
2023-09-25T10:28:34.362Z,4.18
2023-09-25T10:31:03.795Z,3.00
2023-09-25T10:33:34.710Z,2.50
2023-09-25T10:36:03.370Z,3.08
2023-09-25T10:38:33.338Z,3.22
2023-09-25T10:41:06.260Z,3.28
2023-09-25T10:43:34.713Z,3.40
2023-09-25T10:46:03.739Z,2.85
2023-09-25T10:48:34.537Z,2.78
2023-09-25T10:51:01.781Z,3.25
2023-09-25T10:53:28.823Z,2.90
2023-09-25T10:55:55.870Z,2.42
2023-09-25T10:58:22.979Z,6.10
2023-09-25T11:00:53.259Z,3.13
2023-09-25T11:05:49.359Z,3.00
2023-09-25T11:08:17.845Z,4.22
2023-09-25T11:10:47.047Z,4.43
2023-09-25T11:13:14.622Z,3.60
2023-09-25T11:15:43.078Z,4.45
2023-09-25T11:18:13.951Z,3.67
2023-09-25T11:20:42.647Z,4.18
2023-09-25T11:25:44.001Z,4.00
2023-09-25T11:28:15.242Z,3.95
2023-09-25T11:30:44.030Z,5.63
2023-09-25T11:33:11.492Z,3.78
2023-09-25T11:35:39.666Z,4.80
2023-09-25T11:38:26.850Z,4.05
2023-09-25T11:40:54.575Z,3.47
2023-09-25T11:43:25.746Z,4.40
2023-09-25T11:45:54.010Z,3.78
2023-09-25T11:48:21.496Z,4.18
2023-09-25T11:50:50.015Z,4.82
2023-09-25T11:53:17.118Z,4.15
2023-09-25T11:55:44.594Z,4.22
2023-09-25T11:58:11.756Z,3.80
2023-09-25T12:00:39.334Z,4.13
2023-09-25T12:03:09.941Z,4.07
2023-09-25T12:05:37.892Z,4.05
2023-09-25T12:08:07.342Z,4.10
2023-09-25T12:10:40.860Z,4.07
2023-09-25T12:13:09.050Z,3.75
2023-09-25T12:15:37.238Z,3.55
2023-09-25T12:18:05.823Z,4.05
2023-09-25T12:20:43.459Z,4.32
2023-09-25T12:23:10.759Z,4.10
2023-09-25T12:25:37.993Z,4.35
2023-09-25T12:28:06.510Z,4.00
2023-09-25T12:30:34.218Z,5.38
2023-09-25T12:33:02.546Z,4.50
2023-09-25T12:35:29.706Z,4.70
2023-09-25T12:37:57.572Z,4.05
2023-09-25T12:40:25.577Z,4.90
2023-09-25T12:42:56.073Z,4.82
2023-09-25T12:45:24.362Z,5.40
2023-09-25T12:47:52.249Z,5.95
2023-09-25T12:50:19.877Z,5.20
2023-09-25T12:52:48.003Z,5.47
2023-09-25T12:55:15.614Z,5.15
2023-09-25T12:57:43.278Z,4.65
2023-09-25T13:00:11.025Z,4.63
2023-09-25T13:02:38.160Z,5.05
2023-09-25T13:05:10.444Z,5.18
2023-09-25T13:07:37.947Z,3.75
2023-09-25T13:10:07.525Z,4.63
2023-09-25T13:12:34.658Z,8.05
2023-09-25T13:15:04.164Z,4.28
2023-09-25T13:17:31.923Z,4.05
2023-09-25T13:20:00.772Z,4.03
2023-09-25T13:22:36.589Z,4.10
2023-09-25T13:25:06.103Z,4.13
2023-09-25T13:27:33.633Z,4.25
2023-09-25T13:30:00.976Z,3.80
2023-09-25T13:32:31.522Z,4.63
2023-09-25T13:34:58.593Z,4.38
2023-09-25T13:37:25.650Z,3.78
2023-09-25T13:39:54.517Z,3.95
2023-09-25T13:42:21.777Z,4.00
2023-09-25T13:44:48.810Z,3.60
2023-09-25T13:47:16.050Z,3.75
2023-09-25T13:49:45.409Z,3.67
2023-09-25T13:52:12.950Z,4.18
2023-09-25T13:54:40.398Z,3.65
2023-09-25T13:57:07.780Z,4.55
2023-09-25T13:59:35.003Z,3.67
2023-09-25T14:02:02.070Z,4.13
2023-09-25T14:04:31.812Z,4.40
2023-09-25T14:06:59.024Z,3.08
2023-09-25T14:09:26.265Z,4.10
2023-09-25T14:11:54.728Z,3.92
2023-09-25T14:14:23.245Z,3.45
2023-09-25T14:16:51.047Z,4.18
2023-09-25T14:19:18.015Z,3.67
2023-09-25T14:21:45.117Z,3.55
2023-09-25T14:24:12.083Z,4.20
2023-09-25T14:26:39.835Z,3.30
2023-09-25T14:29:07.244Z,4.00
2023-09-25T14:31:41.962Z,3.80
2023-09-25T14:34:09.058Z,3.97
2023-09-25T14:36:36.252Z,3.80
2023-09-25T14:39:04.114Z,3.80
2023-09-25T14:41:31.142Z,3.70
2023-09-25T14:43:58.121Z,3.97
2023-09-25T14:46:25.311Z,3.30
2023-09-25T14:48:52.538Z,3.55
2023-09-25T14:51:19.584Z,3.90
2023-09-25T14:53:46.740Z,3.47
2023-09-25T14:56:14.048Z,3.97
2023-09-25T14:58:41.796Z,3.10
2023-09-25T15:01:11.817Z,3.00
2023-09-25T15:06:07.270Z,3.60
2023-09-25T15:08:34.280Z,2.95
2023-09-25T15:11:01.417Z,3.30
2023-09-25T15:13:28.528Z,3.55
2023-09-25T15:15:55.746Z,3.45
2023-09-25T15:18:23.329Z,3.33
2023-09-25T15:20:50.569Z,3.88
2023-09-25T15:23:17.895Z,3.67
2023-09-25T15:25:44.921Z,3.58
2023-09-25T15:28:12.357Z,4.00
2023-09-25T15:30:39.612Z,4.20
2023-09-25T15:33:06.707Z,3.42
2023-09-25T15:35:33.778Z,3.20
2023-09-25T15:38:00.860Z,3.75
2023-09-25T15:40:28.265Z,3.90
2023-09-25T15:42:55.437Z,3.50
2023-09-25T15:45:22.454Z,3.33
2023-09-25T15:47:49.519Z,2.70
2023-09-25T15:50:16.576Z,3.58
2023-09-25T15:52:43.576Z,3.53
2023-09-25T15:55:11.057Z,4.13
2023-09-25T15:57:38.149Z,3.83
2023-09-25T16:00:07.811Z,3.20
2023-09-25T16:02:35.395Z,3.35
2023-09-25T16:05:03.672Z,3.47
2023-09-25T16:07:31.092Z,3.65
2023-09-25T16:09:58.194Z,2.92
2023-09-25T16:12:26.190Z,3.75
2023-09-25T16:14:55.884Z,3.42
2023-09-25T16:17:23.026Z,4.13
2023-09-25T16:19:50.045Z,3.83
2023-09-25T16:22:17.194Z,3.58
2023-09-25T16:24:44.411Z,4.18
2023-09-25T16:27:11.495Z,4.57
2023-09-25T16:29:38.509Z,3.70
2023-09-25T16:32:05.958Z,4.20
2023-09-25T16:34:32.909Z,4.20
2023-09-25T16:36:59.946Z,3.28
2023-09-25T16:39:30.329Z,4.45
2023-09-25T16:41:59.822Z,4.03
2023-09-25T16:44:27.498Z,3.90
2023-09-25T16:46:54.611Z,3.65
2023-09-25T16:49:22.613Z,3.70
2023-09-25T16:51:49.866Z,4.47
2023-09-25T16:54:16.800Z,5.30
2023-09-25T16:56:43.784Z,3.72
2023-09-25T16:59:11.995Z,3.50
2023-09-25T17:01:39.033Z,4.10
2023-09-25T17:04:06.477Z,3.75
2023-09-25T17:06:33.465Z,3.67
2023-09-25T17:09:00.557Z,3.50
2023-09-25T17:11:33.708Z,3.75
2023-09-25T17:14:01.621Z,3.20
2023-09-25T17:16:32.159Z,3.40
2023-09-25T17:18:59.909Z,3.53
2023-09-25T17:21:27.134Z,3.33
2023-09-25T17:23:54.591Z,3.83
2023-09-25T17:26:21.980Z,3.88
2023-09-25T17:28:51.252Z,3.33
2023-09-25T17:31:18.465Z,3.97
2023-09-25T17:33:46.044Z,3.42
2023-09-25T17:36:13.116Z,3.58
2023-09-25T17:38:40.150Z,3.35
2023-09-25T17:41:11.462Z,3.28
2023-09-25T17:43:39.014Z,4.13
2023-09-25T17:46:07.375Z,3.60
2023-09-25T17:48:36.095Z,3.22
2023-09-25T17:51:03.782Z,3.70
2023-09-25T17:53:30.900Z,3.08
2023-09-25T17:55:58.246Z,3.17
2023-09-25T17:58:30.190Z,4.55
2023-09-25T18:00:59.972Z,3.58
2023-09-25T18:03:27.976Z,5.13
2023-09-25T18:05:55.088Z,4.00
2023-09-25T18:08:22.136Z,3.70
2023-09-25T18:10:49.084Z,4.82
2023-09-25T18:13:18.157Z,2.97
2023-09-25T18:15:47.243Z,3.83
2023-09-25T18:18:14.598Z,4.20
2023-09-25T18:20:41.703Z,4.13
2023-09-25T18:23:08.738Z,3.85
2023-09-25T18:25:38.997Z,3.80
2023-09-25T18:28:06.351Z,3.53
2023-09-25T18:30:33.564Z,3.75
2023-09-25T18:33:02.334Z,3.85
2023-09-25T18:35:29.563Z,4.05
2023-09-25T18:37:56.596Z,17.17
2023-09-25T18:40:23.677Z,5.18
2023-09-25T18:42:50.716Z,3.60
2023-09-25T18:45:17.756Z,3.72
2023-09-25T18:47:45.194Z,3.55
2023-09-25T18:50:12.225Z,3.38
2023-09-25T18:52:39.259Z,3.95
2023-09-25T18:55:07.438Z,3.50
2023-09-25T18:57:34.545Z,3.28
2023-09-25T19:00:01.694Z,3.80
2023-09-25T19:02:28.678Z,3.63
2023-09-25T19:04:56.258Z,5.32
2023-09-25T19:07:23.513Z,3.13
2023-09-25T19:09:53.754Z,3.58
2023-09-25T19:12:20.915Z,2.80
2023-09-25T19:14:48.052Z,3.25
2023-09-25T19:17:15.026Z,3.58
2023-09-25T19:19:42.087Z,4.90
2023-09-25T19:22:10.084Z,3.47
2023-09-25T19:24:37.418Z,3.15
2023-09-25T19:27:05.611Z,3.25
2023-09-25T19:29:32.818Z,4.25
2023-09-25T19:32:00.206Z,2.97
2023-09-25T19:34:27.415Z,3.53
2023-09-25T19:36:54.484Z,2.78
2023-09-25T19:39:21.548Z,2.65
2023-09-25T19:41:48.657Z,3.92
2023-09-25T19:44:15.698Z,2.92
2023-09-25T19:46:42.843Z,3.08
2023-09-25T19:49:09.883Z,2.75
2023-09-25T19:51:39.750Z,3.88
2023-09-25T19:54:07.955Z,3.20
2023-09-25T19:56:34.901Z,2.58
2023-09-25T19:59:01.952Z,2.97
2023-09-25T20:01:29.583Z,3.50
2023-09-25T20:03:56.847Z,3.70
2023-09-25T20:06:24.179Z,2.90
2023-09-25T20:08:51.289Z,3.08
2023-09-25T20:11:18.383Z,3.15
2023-09-25T20:13:45.649Z,3.70
2023-09-25T20:16:12.892Z,3.38
2023-09-25T20:18:39.933Z,4.07
2023-09-25T20:21:06.978Z,2.67
2023-09-25T20:23:34.385Z,4.10
2023-09-25T20:26:06.729Z,3.50
2023-09-25T20:28:33.677Z,3.60
2023-09-25T20:31:00.722Z,3.08
2023-09-25T20:33:28.068Z,3.13
2023-09-25T20:35:56.057Z,2.97
2023-09-25T20:38:25.218Z,3.78
2023-09-25T20:40:52.551Z,3.10
2023-09-25T20:43:19.964Z,2.83
2023-09-25T20:45:47.035Z,2.70
2023-09-25T20:48:13.978Z,2.60
2023-09-25T20:50:41.419Z,2.83
2023-09-25T20:53:08.406Z,3.10
2023-09-25T20:55:35.813Z,2.88
2023-09-25T20:58:04.623Z,3.83
2023-09-25T21:00:32.019Z,2.97
2023-09-25T21:02:59.518Z,3.40
2023-09-25T21:05:27.582Z,2.72
2023-09-25T21:07:56.001Z,2.90
2023-09-25T21:10:23.398Z,2.60
2023-09-25T21:12:50.539Z,2.50
2023-09-25T21:15:17.733Z,3.72
2023-09-25T21:17:44.816Z,3.03
2023-09-25T21:20:12.737Z,3.10
2023-09-25T21:22:39.829Z,3.60
2023-09-25T21:25:10.880Z,3.33
2023-09-25T21:27:38.765Z,3.22
2023-09-25T21:30:07.713Z,2.63
2023-09-25T21:32:36.416Z,3.13
2023-09-25T21:35:04.436Z,2.60
2023-09-25T21:37:31.458Z,2.92
2023-09-25T21:39:58.499Z,3.08
2023-09-25T21:42:25.702Z,2.53
2023-09-25T21:44:52.877Z,2.80
2023-09-25T21:47:20.728Z,2.80
2023-09-25T21:49:47.757Z,3.85
2023-09-25T21:52:14.733Z,3.13
2023-09-25T21:54:42.795Z,3.05
2023-09-25T21:57:09.879Z,2.58
2023-09-25T21:59:36.838Z,3.28
2023-09-25T22:02:05.534Z,3.20
2023-09-25T22:04:32.657Z,3.13
2023-09-25T22:07:00.816Z,2.80
2023-09-25T22:09:27.950Z,2.92
2023-09-25T22:11:56.112Z,3.00
2023-09-25T22:14:23.404Z,3.35
2023-09-25T22:16:50.978Z,3.25
2023-09-25T22:19:19.800Z,3.22
2023-09-25T22:21:48.403Z,3.00
2023-09-25T22:24:16.478Z,2.65
2023-09-25T22:26:43.939Z,2.72
2023-09-25T22:29:11.207Z,3.38
2023-09-25T22:31:43.334Z,2.80
2023-09-25T22:34:10.386Z,3.38
2023-09-25T22:36:37.311Z,3.40
2023-09-25T22:39:08.206Z,2.72
2023-09-25T22:44:01.970Z,3.30
2023-09-25T22:46:29.008Z,3.03
2023-09-25T22:48:56.070Z,2.53
2023-09-25T22:51:23.083Z,3.85
2023-09-25T22:53:50.155Z,2.70
2023-09-25T22:56:17.215Z,3.10
2023-09-25T22:58:44.160Z,3.13
2023-09-25T23:01:11.465Z,2.75
2023-09-25T23:03:38.641Z,3.00
2023-09-25T23:06:05.749Z,3.17
2023-09-25T23:08:32.878Z,3.50
2023-09-25T23:10:59.902Z,3.63
2023-09-25T23:13:27.096Z,3.65
2023-09-25T23:15:54.248Z,3.20
2023-09-25T23:18:21.681Z,3.88
2023-09-25T23:20:52.744Z,3.33
2023-09-25T23:23:19.726Z,3.30
2023-09-25T23:25:46.810Z,3.75
2023-09-25T23:28:14.544Z,3.65
2023-09-25T23:30:41.768Z,3.80
2023-09-25T23:33:51.883Z,3.97
2023-09-25T23:36:19.635Z,3.63
2023-09-25T23:38:46.678Z,4.38
2023-09-25T23:41:13.640Z,3.67
2023-09-25T23:43:40.991Z,3.65
2023-09-25T23:46:08.066Z,3.67
2023-09-25T23:48:37.603Z,3.53
2023-09-25T23:51:05.014Z,4.00
2023-09-25T23:53:34.027Z,4.07
2023-09-25T23:56:05.081Z,3.72
2023-09-25T23:58:32.952Z,3.30
